Time;durP1;ratioP1;P1;durP2;ratioP2;P2;SDS_P1;SDS_P2;PMS_P1;PMS_P2;Temp;Humidity;BMP_temperature;BMP_pressure;BME280_temperature;BME280_humidity;BME280_pressure;Samples;Min_cycle;Max_cycle;Signal;HPM_P1;HPM_P2
2023/08/21 00:08:16;;;;;;;13.05;11.10;;;;;;;24.87;62.97;100669.28;41564286;28;20046;-66
2023/08/21 00:28:17;;;;;;;10.57;9.45;;;;;;;24.67;63.81;100677.19;41570792;28;20099;-67
2023/08/21 00:48:18;;;;;;;11.38;9.35;;;;;;;24.45;63.17;100673.72;41563375;28;20048;-66
2023/08/21 01:08:49;;;;;;;9.85;8.80;;;;;;;24.50;63.12;100698.94;41567602;28;20029;-67
2023/08/21 01:28:50;;;;;;;12.57;9.48;;;;;;;24.40;63.71;100710.34;41534530;28;20815;-66
2023/08/21 01:48:54;;;;;;;11.48;9.15;;;;;;;24.32;64.19;100712.81;41541615;28;20045;-66
2023/08/21 02:08:56;;;;;;;11.23;9.98;;;;;;;24.07;64.39;100704.31;41549926;28;20095;-66
2023/08/21 02:28:57;;;;;;;12.95;8.98;;;;;;;24.22;63.12;100712.75;41572091;28;20519;-67
2023/08/21 02:48:59;;;;;;;11.25;9.13;;;;;;;24.13;63.72;100722.31;41589002;28;20048;-66
2023/08/21 03:09:00;;;;;;;14.63;10.35;;;;;;;24.00;64.56;100713.75;41598063;28;20115;-67
2023/08/21 03:29:01;;;;;;;10.80;9.02;;;;;;;23.86;64.62;100727.25;41579001;28;20045;-67
2023/08/21 03:49:02;;;;;;;12.70;9.50;;;;;;;23.74;64.79;100727.31;41579899;28;20045;-68
2023/08/21 04:09:06;;;;;;;12.57;9.55;;;;;;;23.62;65.64;100726.53;41557028;28;20053;-67
2023/08/21 04:29:06;;;;;;;12.27;9.20;;;;;;;23.77;64.69;100710.34;41548851;28;20133;-67
2023/08/21 04:49:06;;;;;;;14.20;9.77;;;;;;;23.91;64.78;100740.94;41493445;28;20049;-66
2023/08/21 05:09:07;;;;;;;13.32;9.55;;;;;;;24.03;64.21;100761.09;41536582;28;20525;-66
2023/08/21 05:29:07;;;;;;;14.48;10.00;;;;;;;24.08;64.40;100764.22;41513161;28;20557;-68
2023/08/21 05:49:08;;;;;;;16.63;10.40;;;;;;;24.16;64.60;100779.44;41522493;28;20065;-72
2023/08/21 06:09:09;;;;;;;14.32;9.05;;;;;;;24.59;63.05;100782.88;41513897;28;20049;-72
2023/08/21 06:29:10;;;;;;;13.15;9.45;;;;;;;25.24;61.66;100779.91;41540432;28;20386;-72
2023/08/21 06:49:13;;;;;;;12.00;9.13;;;;;;;25.47;61.56;100780.56;41516777;28;20045;-73
2023/08/21 07:09:14;;;;;;;14.50;10.63;;;;;;;25.81;59.76;100769.53;41527684;28;20108;-71
2023/08/21 07:29:14;;;;;;;10.40;9.35;;;;;;;25.89;60.22;100780.28;41632915;28;20503;-69
2023/08/21 07:49:15;;;;;;;11.93;9.82;;;;;;;26.00;59.48;100751.91;41617254;28;20106;-74
2023/08/21 08:09:15;;;;;;;11.88;9.90;;;;;;;26.40;60.01;100788.06;41521022;28;20504;-70
2023/08/21 08:29:16;;;;;;;16.88;10.82;;;;;;;26.45;58.89;100779.66;41432588;28;20515;-71
2023/08/21 08:49:18;;;;;;;12.00;10.68;;;;;;;26.65;59.09;100777.78;41484454;28;20409;-71
2023/08/21 09:09:19;;;;;;;12.20;10.73;;;;;;;26.83;57.92;100780.53;41482176;28;20081;-74
2023/08/21 09:29:19;;;;;;;12.63;10.13;;;;;;;27.26;55.41;100755.13;41538849;28;20041;-72
2023/08/21 09:49:21;;;;;;;12.38;9.95;;;;;;;27.05;55.55;100755.41;41528348;28;20420;-75
2023/08/21 10:09:23;;;;;;;10.13;9.13;;;;;;;27.18;55.78;100739.06;41546502;28;20041;-73
2023/08/21 10:29:23;;;;;;;11.52;9.55;;;;;;;27.36;54.74;100725.78;41541911;28;20071;-71
2023/08/21 10:49:24;;;;;;;12.85;9.32;;;;;;;27.56;53.92;100707.03;41515580;28;20104;-70
2023/08/21 11:09:24;;;;;;;11.38;8.90;;;;;;;28.09;52.78;100702.66;41530837;28;20073;-72
2023/08/21 11:29:25;;;;;;;44.17;29.92;;;;;;;28.38;52.42;100690.78;41572514;28;20508;-72
2023/08/21 11:49:26;;;;;;;11.82;10.63;;;;;;;28.52;50.54;100676.06;41474338;28;20049;-67
2023/08/21 12:09:27;;;;;;;12.37;10.73;;;;;;;28.98;52.73;100657.03;41472203;28;20046;-67
2023/08/21 12:29:27;;;;;;;11.32;9.43;;;;;;;28.31;53.02;100648.00;41517730;28;20053;-72
2023/08/21 12:49:28;;;;;;;11.70;9.13;;;;;;;28.28;52.86;100646.50;41487684;28;21400;-76
2023/08/21 13:09:29;;;;;;;12.03;7.93;;;;;;;28.35;52.97;100629.88;41459185;28;20077;-71
2023/08/21 13:29:30;;;;;;;8.70;7.90;;;;;;;28.16;53.38;100618.50;41496667;28;20053;-73
2023/08/21 13:49:30;;;;;;;11.43;6.83;;;;;;;28.25;52.67;100614.03;41504502;28;20053;-71
2023/08/21 14:09:30;;;;;;;7.23;6.30;;;;;;;28.29;52.05;100599.38;41539664;28;20077;-70
2023/08/21 14:29:31;;;;;;;6.43;5.80;;;;;;;28.24;51.70;100580.41;41534060;28;20103;-71
2023/08/21 14:49:34;;;;;;;15.97;5.97;;;;;;;28.25;52.25;100558.94;41563820;28;20381;-72
2023/08/21 15:09:35;;;;;;;6.88;5.32;;;;;;;28.19;52.59;100567.56;41610913;28;20056;-72
2023/08/21 15:29:36;;;;;;;9.90;5.83;;;;;;;28.46;52.48;100555.00;41575877;28;20048;-73
2023/08/21 15:49:37;;;;;;;5.88;5.28;;;;;;;28.35;52.49;100547.31;41604213;28;20049;-72
2023/08/21 16:09:43;;;;;;;6.70;5.40;;;;;;;28.24;52.26;100533.31;41600746;28;20092;-70
2023/08/21 16:29:44;;;;;;;6.25;5.45;;;;;;;28.23;52.49;100530.81;41576816;28;20041;-71
2023/08/21 16:49:46;;;;;;;8.40;5.27;;;;;;;28.19;52.88;100538.28;41442386;28;20042;-72
2023/08/21 17:09:49;;;;;;;4.97;4.57;;;;;;;28.16;52.90;100532.44;41460901;28;20433;-73
2023/08/21 17:29:51;;;;;;;6.35;4.88;;;;;;;28.17;53.38;100539.44;41557133;28;20038;-70
2023/08/21 17:49:51;;;;;;;;;;;;;;;28.12;54.55;100550.56;41533799;28;20057;-71
2023/08/21 18:09:52;;;;;;;7.87;6.47;;;;;;;28.22;55.23;100566.41;41584895;28;19921;-69
2023/08/21 18:29:53;;;;;;;6.97;6.00;;;;;;;27.96;55.87;100561.97;41567112;28;20049;-74
2023/08/21 18:49:54;;;;;;;9.13;6.03;;;;;;;27.90;54.76;100586.56;41586171;28;20049;-74
2023/08/21 19:09:55;;;;;;;12.20;7.53;;;;;;;27.29;54.22;100496.94;41589928;28;20041;-73
2023/08/21 19:29:56;;;;;;;12.10;7.45;;;;;;;27.82;54.20;100613.97;41569220;28;20064;-71
2023/08/21 19:49:57;;;;;;;12.20;8.77;;;;;;;26.43;54.65;100428.50;41595677;28;20042;-70
2023/08/21 20:09:58;;;;;;;11.00;9.13;;;;;;;26.84;55.59;100516.50;41589535;28;20042;-69
2023/08/21 20:30:00;;;;;;;13.18;9.10;;;;;;;27.53;56.04;100616.94;41576104;28;20038;-71
2023/08/21 20:50:02;;;;;;;12.13;9.15;;;;;;;26.66;58.80;100598.84;41591641;28;20065;-69
2023/08/21 21:10:04;;;;;;;10.98;8.98;;;;;;;26.77;58.66;100651.78;41603218;28;20059;-70
2023/08/21 21:30:06;;;;;;;12.48;8.68;;;;;;;26.46;59.81;100638.78;41424819;28;20092;-68
2023/08/21 21:50:07;;;;;;;12.02;9.32;;;;;;;26.47;60.21;100655.56;41424953;28;20049;-69
2023/08/21 22:10:13;;;;;;;13.55;10.25;;;;;;;26.20;61.39;100647.41;41554380;28;20033;-72
2023/08/21 22:30:14;;;;;;;11.55;9.98;;;;;;;26.05;61.21;100654.16;41607629;28;20128;-69
2023/08/21 22:50:14;;;;;;;12.35;9.80;;;;;;;25.53;61.56;100564.41;41567229;28;20092;-67
2023/08/21 23:10:16;;;;;;;11.63;9.38;;;;;;;25.57;62.24;100614.38;41604184;28;20042;-68
2023/08/21 23:30:17;;;;;;;11.35;9.73;;;;;;;25.68;62.14;100645.19;41608704;28;20500;-69
2023/08/21 23:50:17;;;;;;;11.40;10.15;;;;;;;25.55;62.60;100626.09;41583446;28;20044;-67
